createdAt,value
2023-04-11T00:01:59.503Z,10.41
2023-04-11T00:04:26.843Z,10.49
2023-04-11T00:06:56.665Z,10.38
2023-04-11T00:09:23.750Z,10.30
2023-04-11T00:11:51.498Z,10.23
2023-04-11T00:14:19.124Z,10.27
2023-04-11T00:16:50.071Z,10.28
2023-04-11T00:19:17.397Z,10.19
2023-04-11T00:21:44.346Z,10.30
2023-04-11T00:24:11.720Z,10.26
2023-04-11T00:26:38.882Z,10.23
2023-04-11T00:29:06.184Z,10.25
2023-04-11T00:31:33.099Z,10.17
2023-04-11T00:33:59.940Z,10.13
2023-04-11T00:36:27.299Z,10.18
2023-04-11T00:38:55.313Z,10.21
2023-04-11T00:41:24.990Z,10.17
2023-04-11T00:43:51.748Z,10.12
2023-04-11T00:46:25.183Z,10.20
2023-04-11T00:48:53.088Z,10.15
2023-04-11T00:51:20.400Z,10.15
2023-04-11T00:53:47.342Z,10.10
2023-04-11T00:56:14.309Z,10.19
2023-04-11T00:58:41.657Z,10.16
2023-04-11T01:01:11.838Z,10.13
2023-04-11T01:03:41.544Z,10.14
2023-04-11T01:06:14.821Z,10.12
2023-04-11T01:08:43.495Z,10.06
2023-04-11T01:11:11.276Z,10.04
2023-04-11T01:13:41.418Z,9.97
2023-04-11T01:16:15.446Z,9.84
2023-04-11T01:18:42.385Z,10.00
2023-04-11T01:21:19.801Z,9.99
2023-04-11T01:23:49.120Z,10.08
2023-04-11T01:26:16.376Z,10.07
2023-04-11T01:28:43.226Z,10.06
2023-04-11T01:31:10.213Z,10.04
2023-04-11T01:33:37.153Z,10.06
2023-04-11T01:36:08.304Z,10.02
2023-04-11T01:38:35.300Z,10.01
2023-04-11T01:41:03.065Z,10.05
2023-04-11T01:43:29.912Z,10.03
2023-04-11T01:45:56.990Z,10.08
2023-04-11T01:48:23.908Z,10.07
2023-04-11T01:50:52.134Z,10.15
2023-04-11T01:53:22.353Z,10.08
2023-04-11T01:55:52.109Z,10.09
2023-04-11T01:58:18.899Z,10.07
2023-04-11T02:00:45.648Z,10.15
2023-04-11T02:03:12.663Z,10.13
2023-04-11T02:05:39.958Z,10.05
2023-04-11T02:08:06.727Z,9.98
2023-04-11T02:10:34.110Z,10.04
2023-04-11T02:13:00.788Z,10.08
2023-04-11T02:15:30.412Z,9.96
2023-04-11T02:18:00.505Z,9.95
2023-04-11T02:20:28.270Z,9.93
2023-04-11T02:22:56.127Z,10.03
2023-04-11T02:25:25.766Z,10.01
2023-04-11T02:27:52.527Z,10.07
2023-04-11T02:30:19.380Z,10.02
2023-04-11T02:32:47.276Z,9.99
2023-04-11T02:35:13.987Z,9.97
2023-04-11T02:37:41.211Z,9.95
2023-04-11T02:40:08.968Z,9.94
2023-04-11T02:42:47.734Z,9.92
2023-04-11T02:45:14.757Z,9.92
2023-04-11T02:47:41.698Z,9.88
2023-04-11T02:50:09.080Z,9.81
2023-04-11T02:52:37.835Z,9.73
2023-04-11T02:55:05.906Z,9.66
2023-04-11T02:57:32.653Z,9.58
2023-04-11T02:59:59.451Z,9.68
2023-04-11T03:02:26.301Z,9.65
2023-04-11T03:04:53.110Z,9.64
2023-04-11T03:07:19.916Z,9.59
2023-04-11T03:09:46.748Z,9.56
2023-04-11T03:12:13.470Z,9.56
2023-04-11T03:14:41.939Z,9.57
2023-04-11T03:17:08.947Z,9.57
2023-04-11T03:19:35.859Z,9.62
2023-04-11T03:22:11.909Z,9.65
2023-04-11T03:24:39.639Z,9.53
2023-04-11T03:27:06.371Z,9.61
2023-04-11T03:29:36.786Z,9.55
2023-04-11T03:32:03.706Z,9.58
2023-04-11T03:34:33.408Z,9.55
2023-04-11T03:37:01.533Z,9.49
2023-04-11T03:39:28.773Z,9.48
2023-04-11T03:41:55.989Z,9.48
2023-04-11T03:44:22.768Z,9.49
2023-04-11T03:46:49.563Z,9.56
2023-04-11T03:49:16.317Z,9.53
2023-04-11T03:51:43.290Z,9.54
2023-04-11T03:54:09.990Z,9.50
2023-04-11T03:56:37.211Z,9.47
2023-04-11T03:59:06.780Z,9.42
2023-04-11T04:01:34.047Z,9.43
2023-04-11T04:04:05.252Z,9.44
2023-04-11T04:06:32.125Z,9.44
2023-04-11T04:09:01.692Z,9.44
2023-04-11T04:11:28.456Z,9.43
2023-04-11T04:13:55.982Z,9.45
2023-04-11T04:16:23.282Z,9.40
2023-04-11T04:18:50.421Z,9.36
2023-04-11T04:21:18.128Z,9.34
2023-04-11T04:23:47.944Z,9.34
2023-04-11T04:26:17.862Z,9.32
2023-04-11T04:28:48.198Z,9.32
2023-04-11T04:31:18.374Z,9.32
2023-04-11T04:33:49.709Z,9.32
2023-04-11T04:36:18.172Z,9.21
2023-04-11T04:38:48.179Z,9.09
2023-04-11T04:41:22.295Z,8.93
2023-04-11T04:43:49.255Z,8.68
2023-04-11T04:46:16.540Z,8.35
2023-04-11T04:48:43.357Z,8.10
2023-04-11T04:51:10.080Z,7.92
2023-04-11T04:53:38.908Z,7.72
2023-04-11T04:56:06.590Z,7.66
2023-04-11T04:58:33.561Z,7.58
2023-04-11T05:01:06.200Z,7.55
2023-04-11T05:03:35.846Z,7.59
2023-04-11T05:06:06.176Z,7.47
2023-04-11T05:08:33.120Z,7.47
2023-04-11T05:11:01.599Z,7.34
2023-04-11T05:13:28.351Z,7.31
2023-04-11T05:15:55.122Z,7.30
2023-04-11T05:18:21.846Z,7.23
2023-04-11T05:20:53.421Z,7.23
2023-04-11T05:23:20.157Z,7.24
2023-04-11T05:25:46.884Z,7.25
2023-04-11T05:28:13.665Z,7.26
2023-04-11T05:30:40.549Z,7.27
2023-04-11T05:33:07.382Z,7.32
2023-04-11T05:35:34.177Z,7.34
2023-04-11T05:38:00.947Z,7.34
2023-04-11T05:40:27.962Z,7.35
2023-04-11T05:42:54.702Z,7.40
2023-04-11T05:45:21.800Z,7.37
2023-04-11T05:47:48.658Z,7.39
2023-04-11T05:50:15.967Z,7.41
2023-04-11T05:52:42.859Z,7.45
2023-04-11T05:55:10.080Z,7.47
2023-04-11T05:57:36.917Z,7.48
2023-04-11T06:00:12.800Z,7.54
2023-04-11T06:02:42.217Z,7.52
2023-04-11T06:05:12.116Z,7.51
2023-04-11T06:07:40.097Z,7.46
2023-04-11T06:10:08.052Z,7.45
2023-04-11T06:12:35.028Z,7.49
2023-04-11T06:15:02.218Z,7.53
2023-04-11T06:17:29.298Z,7.57
2023-04-11T06:19:56.099Z,7.58
2023-04-11T06:22:22.920Z,7.63
2023-04-11T06:24:49.641Z,7.69
2023-04-11T06:27:16.691Z,7.73
2023-04-11T06:29:43.831Z,7.76
2023-04-11T06:32:12.291Z,7.87
2023-04-11T06:34:39.968Z,7.88
2023-04-11T06:37:07.285Z,7.91
2023-04-11T06:39:36.621Z,8.00
2023-04-11T06:42:06.590Z,8.00
2023-04-11T06:44:33.894Z,8.03
2023-04-11T06:47:00.923Z,8.02
2023-04-11T06:49:31.576Z,8.06
2023-04-11T06:51:59.632Z,8.03
2023-04-11T06:54:29.036Z,7.96
2023-04-11T06:56:57.417Z,8.00
2023-04-11T06:59:24.811Z,7.97
2023-04-11T07:01:51.922Z,7.98
2023-04-11T07:04:18.962Z,8.00
2023-04-11T07:06:46.541Z,8.09
2023-04-11T07:09:15.709Z,8.12
2023-04-11T07:11:42.510Z,8.16
2023-04-11T07:14:11.614Z,8.17
2023-04-11T07:16:38.470Z,8.21
2023-04-11T07:19:11.644Z,8.28
2023-04-11T07:21:38.519Z,8.21
2023-04-11T07:24:06.844Z,8.27
2023-04-11T07:26:35.530Z,8.27
2023-04-11T07:29:02.395Z,8.33
2023-04-11T07:31:29.272Z,8.40
2023-04-11T07:34:04.536Z,8.48
2023-04-11T07:36:32.082Z,8.44
2023-04-11T07:39:00.781Z,8.52
2023-04-11T07:41:27.536Z,8.50
2023-04-11T07:43:57.049Z,8.49
2023-04-11T07:46:23.893Z,8.53
2023-04-11T07:48:53.457Z,8.53
2023-04-11T07:51:20.307Z,8.54
2023-04-11T07:53:47.039Z,8.60
2023-04-11T07:56:15.437Z,8.66
2023-04-11T07:58:42.496Z,8.68
2023-04-11T08:01:21.991Z,8.71
2023-04-11T08:03:49.090Z,8.80
2023-04-11T08:06:16.256Z,8.81
2023-04-11T08:08:53.461Z,8.75
2023-04-11T08:11:20.221Z,8.74
2023-04-11T08:13:46.982Z,8.71
2023-04-11T08:16:15.615Z,8.74
2023-04-11T08:18:42.859Z,8.68
2023-04-11T08:21:12.315Z,8.69
2023-04-11T08:23:44.079Z,8.66
2023-04-11T08:26:15.172Z,8.65
2023-04-11T08:28:43.093Z,8.65
2023-04-11T08:31:10.901Z,8.72
2023-04-11T08:33:37.606Z,8.82
2023-04-11T08:36:05.214Z,8.94
2023-04-11T08:38:32.095Z,9.11
2023-04-11T08:40:58.857Z,9.06
2023-04-11T08:43:26.033Z,9.05
2023-04-11T08:45:53.069Z,8.99
2023-04-11T08:48:22.160Z,8.96
2023-04-11T08:50:54.459Z,8.87
2023-04-11T08:53:24.811Z,8.67
2023-04-11T08:55:52.174Z,8.64
2023-04-11T08:58:19.902Z,8.60
2023-04-11T09:00:49.714Z,8.62
2023-04-11T09:03:19.208Z,8.58
2023-04-11T09:05:49.356Z,8.56
2023-04-11T09:08:20.066Z,8.48
2023-04-11T09:10:55.815Z,8.34
2023-04-11T09:13:29.421Z,8.21
2023-04-11T09:16:06.283Z,8.17
2023-04-11T09:18:36.146Z,8.23
2023-04-11T09:21:06.330Z,8.17
2023-04-11T09:23:33.303Z,8.25
2023-04-11T09:26:04.034Z,8.39
2023-04-11T09:28:44.343Z,8.55
2023-04-11T09:31:13.545Z,8.70
2023-04-11T09:33:55.513Z,8.94
2023-04-11T09:36:24.399Z,9.19
2023-04-11T09:38:51.980Z,9.38
2023-04-11T09:41:33.997Z,9.48
2023-04-11T09:44:01.515Z,9.46
2023-04-11T09:46:28.429Z,9.32
2023-04-11T09:48:56.349Z,9.36
2023-04-11T09:51:35.755Z,9.50
2023-04-11T09:54:04.876Z,9.73
2023-04-11T09:56:34.878Z,9.90
2023-04-11T09:59:03.302Z,10.28
2023-04-11T10:01:30.132Z,10.39
2023-04-11T10:03:57.812Z,10.45
2023-04-11T10:06:38.931Z,10.25
2023-04-11T10:09:08.740Z,10.28
2023-04-11T10:11:36.330Z,10.49
2023-04-11T10:14:06.398Z,10.67
2023-04-11T10:16:34.621Z,10.85
2023-04-11T10:19:02.907Z,10.70
2023-04-11T10:21:33.058Z,10.77
2023-04-11T10:24:21.314Z,10.99
2023-04-11T10:26:55.293Z,11.08
2023-04-11T10:29:31.106Z,11.43
2023-04-11T10:32:17.539Z,11.40
2023-04-11T10:34:50.749Z,11.69
2023-04-11T10:37:19.480Z,11.45
2023-04-11T10:39:52.285Z,11.54
2023-04-11T10:42:39.410Z,11.45
2023-04-11T10:45:28.302Z,11.21
2023-04-11T10:47:57.784Z,12.08
2023-04-11T10:50:27.582Z,12.93
2023-04-11T10:52:57.276Z,12.89
2023-04-11T10:55:27.254Z,12.74
2023-04-11T10:58:09.612Z,12.17
2023-04-11T11:00:51.800Z,12.02
2023-04-11T11:03:37.097Z,11.65
2023-04-11T11:06:06.478Z,11.49
2023-04-11T11:08:35.308Z,11.27
2023-04-11T11:11:09.047Z,11.30
2023-04-11T11:13:39.424Z,11.26
2023-04-11T11:16:07.991Z,11.07
2023-04-11T11:18:35.672Z,10.60
2023-04-11T11:21:02.682Z,9.43
2023-04-11T11:23:33.077Z,8.04
2023-04-11T11:26:00.903Z,7.81
2023-04-11T11:30:57.136Z,8.41
2023-04-11T11:33:31.058Z,8.92
2023-04-11T11:36:00.167Z,9.49
2023-04-11T11:38:29.444Z,9.87
2023-04-11T11:40:57.483Z,10.13
2023-04-11T11:43:27.528Z,10.08
2023-04-11T11:46:26.603Z,10.22
2023-04-11T11:49:14.139Z,10.65
2023-04-11T11:51:46.902Z,10.55
2023-04-11T11:54:16.778Z,10.44
2023-04-11T11:56:50.874Z,10.45
2023-04-11T11:59:26.723Z,10.62
2023-04-11T12:01:53.602Z,10.87
2023-04-11T12:04:21.205Z,10.73
2023-04-11T12:06:56.855Z,10.76
2023-04-11T12:09:31.076Z,10.86
2023-04-11T12:11:58.120Z,10.94
2023-04-11T12:14:25.028Z,11.33
2023-04-11T12:16:54.802Z,11.55
2023-04-11T12:19:21.644Z,11.21
2023-04-11T12:21:48.393Z,10.87
2023-04-11T12:24:17.546Z,10.69
2023-04-11T12:27:05.779Z,10.60
2023-04-11T12:29:33.101Z,10.66
2023-04-11T12:31:59.831Z,10.63
2023-04-11T12:34:26.955Z,10.71
2023-04-11T12:36:53.751Z,11.29
2023-04-11T12:39:20.900Z,11.84
2023-04-11T12:41:48.059Z,11.86
2023-04-11T12:44:14.833Z,11.98
2023-04-11T12:46:41.652Z,12.19
2023-04-11T12:49:11.419Z,12.18
2023-04-11T12:51:38.179Z,11.88
2023-04-11T12:54:05.001Z,12.05
2023-04-11T12:56:32.701Z,12.47
2023-04-11T12:58:59.464Z,12.67
2023-04-11T13:01:26.528Z,12.48
2023-04-11T13:03:53.431Z,12.92
2023-04-11T13:06:20.392Z,13.20
2023-04-11T13:08:50.689Z,13.82
2023-04-11T13:11:17.543Z,13.24
2023-04-11T13:13:44.286Z,13.02
2023-04-11T13:16:12.104Z,12.87
2023-04-11T13:18:39.124Z,13.21
2023-04-11T13:21:06.409Z,12.33
2023-04-11T13:23:33.168Z,12.10
2023-04-11T13:26:01.237Z,11.31
2023-04-11T13:28:28.282Z,10.71
2023-04-11T13:30:56.166Z,10.35
2023-04-11T13:33:29.297Z,9.97
2023-04-11T13:35:56.085Z,9.78
2023-04-11T13:38:22.952Z,9.56
2023-04-11T13:40:49.799Z,9.30
2023-04-11T13:43:16.565Z,9.18
2023-04-11T13:45:43.521Z,8.69
2023-04-11T13:48:11.211Z,8.32
2023-04-11T13:50:38.264Z,8.24
2023-04-11T13:53:05.321Z,8.34
2023-04-11T13:55:32.051Z,8.36
2023-04-11T13:57:58.850Z,8.41
2023-04-11T14:00:26.089Z,8.41
2023-04-11T14:02:55.457Z,8.21
2023-04-11T14:05:22.515Z,8.04
2023-04-11T14:07:52.416Z,7.96
2023-04-11T14:10:19.162Z,7.59
2023-04-11T14:12:46.109Z,7.48
2023-04-11T14:15:13.100Z,7.30
2023-04-11T14:17:39.928Z,7.06
2023-04-11T14:20:11.581Z,6.90
2023-04-11T14:22:38.361Z,6.81
2023-04-11T14:25:07.384Z,6.69
2023-04-11T14:27:34.194Z,6.75
2023-04-11T14:30:01.021Z,6.66
2023-04-11T14:32:27.904Z,-143.37
2023-04-11T14:35:53.318Z,-143.37
2023-04-11T14:39:24.670Z,-143.37
2023-04-11T14:42:49.966Z,-143.37
2023-04-11T14:46:15.292Z,-143.37
2023-04-11T14:49:40.602Z,-143.37
2023-04-11T14:53:05.951Z,-143.37
2023-04-11T14:56:31.235Z,-143.37
2023-04-11T14:59:59.705Z,-143.37
2023-04-11T15:03:25.551Z,-143.37
2023-04-11T15:06:11.391Z,-143.37
2023-04-11T15:08:59.538Z,-143.37
2023-04-11T15:11:47.411Z,-143.37
2023-04-11T15:14:37.368Z,-143.37
2023-04-11T15:17:24.747Z,-143.37
2023-04-11T15:20:12.565Z,-143.37
2023-04-11T15:23:00.173Z,-143.37
2023-04-11T15:25:51.900Z,-143.37
2023-04-11T15:28:39.792Z,-143.37
2023-04-11T15:31:14.882Z,-143.37
2023-04-11T15:33:41.736Z,-143.37
2023-04-11T15:36:09.204Z,-143.37
2023-04-11T15:38:36.180Z,-143.37
2023-04-11T15:41:03.132Z,-143.37
2023-04-11T15:43:32.292Z,-143.37
2023-04-11T15:45:59.073Z,-143.37
2023-04-11T15:48:28.694Z,-143.37
2023-04-11T15:50:55.570Z,-143.37
2023-04-11T15:53:22.279Z,-143.37
2023-04-11T15:55:52.212Z,-143.37
2023-04-11T15:58:18.963Z,-143.37
2023-04-11T16:00:47.182Z,-143.37
2023-04-11T16:03:15.775Z,-143.37
2023-04-11T16:05:43.389Z,-143.37
2023-04-11T16:08:10.479Z,-143.37
2023-04-11T16:10:37.231Z,-143.37
2023-04-11T16:13:07.157Z,-143.37
2023-04-11T16:15:36.143Z,6.66
2023-04-11T16:18:03.164Z,9.35
2023-04-11T16:20:33.089Z,9.35
2023-04-11T16:23:01.082Z,9.32
2023-04-11T16:25:27.898Z,8.81
2023-04-11T16:28:01.479Z,8.81
2023-04-11T16:30:28.375Z,8.11
2023-04-11T16:32:55.366Z,7.88
2023-04-11T16:35:22.103Z,7.39
2023-04-11T16:37:51.701Z,7.46
2023-04-11T16:40:18.511Z,7.47
2023-04-11T16:42:45.336Z,7.37
2023-04-11T16:45:12.277Z,7.32
2023-04-11T16:47:39.393Z,7.14
2023-04-11T16:50:07.040Z,-143.37
2023-04-11T16:52:33.905Z,7.06
2023-04-11T16:55:00.779Z,-143.37
2023-04-11T16:57:33.477Z,7.06
2023-04-11T17:00:21.417Z,-143.37
2023-04-11T17:03:02.323Z,-143.37
2023-04-11T17:05:34.628Z,-143.37
2023-04-11T17:08:11.283Z,-143.37
2023-04-11T17:11:06.848Z,-143.37
2023-04-11T17:13:49.625Z,-143.37
2023-04-11T17:16:35.990Z,-143.37
2023-04-11T17:19:24.476Z,-143.37
2023-04-11T17:21:57.560Z,-143.37
2023-04-11T17:24:31.142Z,-143.37
2023-04-11T17:26:59.455Z,-143.37
2023-04-11T17:29:26.305Z,-143.37
2023-04-11T17:31:56.948Z,-143.37
2023-04-11T17:34:51.120Z,-143.37
2023-04-11T17:37:39.894Z,-143.37
2023-04-11T17:40:28.109Z,-143.37
2023-04-11T17:43:15.876Z,-143.37
2023-04-11T17:46:03.299Z,-143.37
2023-04-11T17:48:50.581Z,-143.37
2023-04-11T17:51:43.083Z,-143.37
2023-04-11T17:54:36.682Z,-143.37
2023-04-11T17:57:24.097Z,-143.37
2023-04-11T18:00:30.542Z,-143.37
2023-04-11T18:03:18.315Z,-143.37
2023-04-11T18:06:06.732Z,-143.37
2023-04-11T18:08:54.639Z,-143.37
2023-04-11T18:11:45.078Z,-143.37
2023-04-11T18:14:34.126Z,-143.37
2023-04-11T18:17:30.680Z,-143.37
2023-04-11T18:20:18.450Z,-143.37
2023-04-11T18:23:08.605Z,-143.37
2023-04-11T18:25:58.921Z,-143.37
2023-04-11T18:28:46.259Z,-143.37
2023-04-11T18:31:35.440Z,-143.37
2023-04-11T18:34:23.020Z,-143.37
2023-04-11T18:37:10.379Z,-143.37
2023-04-11T18:39:58.216Z,-143.37
2023-04-11T18:42:49.280Z,-143.37
2023-04-11T18:45:41.802Z,-143.37
2023-04-11T18:48:31.126Z,-143.37
2023-04-11T18:51:14.914Z,7.06
2023-04-11T18:53:41.867Z,5.29
2023-04-11T18:56:08.648Z,5.17
2023-04-11T18:58:40.026Z,5.17
2023-04-11T19:01:15.586Z,5.06
2023-04-11T19:03:43.997Z,4.95
2023-04-11T19:06:13.304Z,4.89
2023-04-11T19:08:40.194Z,4.79
2023-04-11T19:11:07.017Z,4.68
2023-04-11T19:13:39.745Z,4.60
2023-04-11T19:16:06.873Z,4.56
2023-04-11T19:18:33.678Z,4.47
2023-04-11T19:21:01.562Z,4.43
2023-04-11T19:23:28.515Z,4.36
2023-04-11T19:25:55.207Z,4.34
2023-04-11T19:28:21.941Z,4.29
2023-04-11T19:30:51.719Z,4.25
2023-04-11T19:33:18.808Z,4.21
2023-04-11T19:35:45.601Z,4.18
2023-04-11T19:38:12.737Z,4.19
2023-04-11T19:40:44.548Z,4.17
2023-04-11T19:43:11.332Z,4.16
2023-04-11T19:45:38.158Z,4.19
2023-04-11T19:48:05.153Z,4.28
2023-04-11T19:50:32.256Z,4.27
2023-04-11T19:52:59.451Z,4.24
2023-04-11T19:55:30.447Z,4.25
2023-04-11T19:57:57.174Z,4.19
2023-04-11T20:00:25.432Z,4.07
2023-04-11T20:02:53.514Z,3.99
2023-04-11T20:05:22.338Z,3.97
2023-04-11T20:07:49.141Z,3.85
2023-04-11T20:10:16.963Z,3.79
2023-04-11T20:12:43.860Z,3.74
2023-04-11T20:15:11.544Z,3.68
2023-04-11T20:17:38.291Z,3.65
2023-04-11T20:20:06.216Z,3.61
2023-04-11T20:22:33.384Z,3.55
2023-04-11T20:25:07.048Z,3.52
2023-04-11T20:27:33.981Z,3.50
2023-04-11T20:30:02.002Z,3.45
2023-04-11T20:32:28.898Z,3.39
2023-04-11T20:34:55.760Z,3.37
2023-04-11T20:37:22.775Z,3.31
2023-04-11T20:39:51.695Z,3.23
2023-04-11T20:42:22.424Z,3.17
2023-04-11T20:44:49.710Z,3.12
2023-04-11T20:47:19.253Z,3.06
2023-04-11T20:49:49.849Z,3.01
2023-04-11T20:52:18.265Z,2.95
2023-04-11T20:54:45.058Z,2.87
2023-04-11T20:57:11.792Z,2.86
2023-04-11T20:59:50.902Z,2.81
2023-04-11T21:02:17.858Z,2.84
2023-04-11T21:04:46.648Z,2.80
2023-04-11T21:07:19.344Z,2.80
2023-04-11T21:09:48.897Z,2.89
2023-04-11T21:12:16.411Z,2.85
2023-04-11T21:14:43.168Z,2.78
2023-04-11T21:17:13.231Z,2.75
2023-04-11T21:19:40.000Z,2.76
2023-04-11T21:22:07.040Z,2.72
2023-04-11T21:24:37.416Z,2.69
2023-04-11T21:27:04.188Z,2.73
2023-04-11T21:29:31.493Z,2.73
2023-04-11T21:31:59.374Z,2.72
2023-04-11T21:34:32.998Z,2.68
2023-04-11T21:37:05.260Z,2.71
2023-04-11T21:39:32.106Z,2.65
2023-04-11T21:42:01.814Z,2.61
2023-04-11T21:44:28.596Z,2.61
2023-04-11T21:46:55.443Z,2.61
2023-04-11T21:49:28.335Z,2.60
2023-04-11T21:51:58.091Z,2.56
2023-04-11T21:54:27.825Z,2.53
2023-04-11T21:56:54.559Z,2.51
2023-04-11T21:59:21.418Z,2.47
2023-04-11T22:01:48.402Z,2.44
2023-04-11T22:04:17.864Z,2.45
2023-04-11T22:06:47.926Z,2.46
2023-04-11T22:09:15.844Z,2.42
2023-04-11T22:11:49.135Z,2.41
2023-04-11T22:14:16.247Z,2.31
2023-04-11T22:16:49.626Z,2.30
2023-04-11T22:19:19.242Z,2.26
2023-04-11T22:22:03.320Z,2.18
2023-04-11T22:24:35.518Z,2.12
2023-04-11T22:27:05.729Z,2.05
2023-04-11T22:29:41.209Z,2.04
2023-04-11T22:32:08.476Z,2.01
2023-04-11T22:34:38.299Z,1.90
2023-04-11T22:37:12.446Z,1.87
2023-04-11T22:39:47.357Z,1.91
2023-04-11T22:42:15.022Z,1.88
2023-04-11T22:44:50.871Z,1.88
2023-04-11T22:47:21.929Z,1.88
2023-04-11T22:49:48.834Z,1.83
2023-04-11T22:52:24.477Z,1.88
2023-04-11T22:54:51.309Z,1.92
2023-04-11T22:57:20.505Z,1.89
2023-04-11T22:59:47.574Z,1.91
2023-04-11T23:02:15.541Z,1.85
2023-04-11T23:04:42.618Z,1.81
2023-04-11T23:07:15.807Z,1.78
2023-04-11T23:09:42.854Z,1.74
2023-04-11T23:12:22.529Z,1.63
2023-04-11T23:14:54.394Z,1.55
2023-04-11T23:17:30.183Z,1.48
2023-04-11T23:20:01.488Z,1.40
2023-04-11T23:22:34.701Z,1.38
2023-04-11T23:25:20.670Z,1.29
2023-04-11T23:27:50.480Z,1.29
2023-04-11T23:30:17.842Z,1.27
2023-04-11T23:32:47.696Z,1.23
2023-04-11T23:35:17.115Z,1.17
2023-04-11T23:37:53.017Z,1.18
2023-04-11T23:40:24.562Z,1.21
2023-04-11T23:42:51.787Z,1.23
2023-04-11T23:45:22.706Z,1.24
2023-04-11T23:47:52.933Z,1.26
2023-04-11T23:50:25.686Z,1.28
2023-04-11T23:52:53.932Z,1.25
2023-04-11T23:55:28.335Z,1.18
2023-04-11T23:57:59.301Z,1.11
